createdAt,value
2022-10-08T00:45:39.730Z,58.40
2022-10-08T00:48:13.357Z,58.40
2022-10-08T00:50:41.817Z,58.40
2022-10-08T00:53:11.493Z,58.40
2022-10-08T00:55:43.946Z,58.40
2022-10-08T00:58:18.943Z,58.40
2022-10-08T01:45:33.956Z,58.10
2022-10-08T01:48:09.255Z,58.00
2022-10-08T01:50:43.958Z,58.10
2022-10-08T01:53:16.899Z,58.00
2022-10-08T01:55:50.539Z,58.00
2022-10-08T01:58:23.734Z,58.10
2022-10-08T02:45:55.186Z,58.10
2022-10-08T02:48:31.800Z,58.00
2022-10-08T02:51:05.318Z,58.00
2022-10-08T02:53:34.643Z,58.00
2022-10-08T02:56:10.726Z,58.00
2022-10-08T02:58:39.044Z,57.90
2022-10-08T03:45:21.258Z,57.80
2022-10-08T03:47:52.670Z,57.80
2022-10-08T03:50:22.024Z,57.90
2022-10-08T03:52:50.454Z,57.80
2022-10-08T03:55:18.779Z,57.80
2022-10-08T03:57:47.023Z,57.80
2022-10-08T04:00:20.795Z,57.90
2022-10-08T04:32:41.887Z,58.00
2022-10-08T04:35:10.573Z,57.90
2022-10-08T04:37:38.628Z,57.90
2022-10-08T04:40:08.160Z,57.90
2022-10-08T04:42:36.331Z,57.80
2022-10-08T04:45:04.682Z,57.90
2022-10-08T04:47:32.953Z,57.90
2022-10-08T04:50:02.629Z,58.00
2022-10-08T04:52:32.520Z,57.80
2022-10-08T04:55:00.663Z,57.90
2022-10-08T04:57:28.760Z,57.90
2022-10-08T05:00:16.953Z,57.90
2022-10-08T05:02:46.004Z,57.90
2022-10-08T05:05:16.352Z,57.80
2022-10-08T05:07:45.010Z,57.80
2022-10-08T05:10:13.420Z,57.70
2022-10-08T05:12:41.644Z,57.70
2022-10-08T05:15:11.508Z,57.80
2022-10-08T05:17:39.636Z,57.70
2022-10-08T05:20:08.667Z,57.70
2022-10-08T05:22:38.161Z,57.70
2022-10-08T05:25:07.754Z,57.70
2022-10-08T05:27:36.490Z,57.70
2022-10-08T05:30:05.279Z,57.70
2022-10-08T05:32:33.802Z,57.80
2022-10-08T05:35:02.213Z,57.60
2022-10-08T05:37:30.336Z,57.50
2022-10-08T05:40:01.208Z,57.50
2022-10-08T05:42:29.277Z,57.30
2022-10-08T05:44:57.382Z,57.00
2022-10-08T05:47:25.543Z,56.70
2022-10-08T05:49:53.758Z,57.00
2022-10-08T05:52:21.878Z,57.10
2022-10-08T05:54:50.059Z,57.20
2022-10-08T05:57:19.562Z,57.10
2022-10-08T05:59:47.799Z,57.10
2022-10-08T06:02:16.591Z,57.10
2022-10-08T06:04:45.371Z,57.10
2022-10-08T06:07:13.472Z,57.10
2022-10-08T06:09:41.592Z,57.20
2022-10-08T06:12:10.003Z,57.30
2022-10-08T06:14:39.603Z,57.30
2022-10-08T06:17:07.850Z,57.20
2022-10-08T06:19:37.203Z,57.30
2022-10-08T06:22:05.734Z,57.30
2022-10-08T06:24:33.914Z,57.30
2022-10-08T06:27:02.535Z,57.30
2022-10-08T06:29:31.757Z,57.60
2022-10-08T06:32:01.710Z,57.50
2022-10-08T06:34:30.340Z,57.40
2022-10-08T06:36:58.400Z,57.00
2022-10-08T06:39:26.660Z,56.80
2022-10-08T06:41:55.214Z,56.10
2022-10-08T06:44:23.644Z,56.80
2022-10-08T06:46:51.859Z,56.80
2022-10-08T06:49:26.477Z,57.20
2022-10-08T06:51:54.698Z,57.90
2022-10-08T06:54:25.087Z,57.70
2022-10-08T06:56:53.243Z,58.40
2022-10-08T06:59:21.483Z,58.00
2022-10-08T07:01:49.874Z,57.60
2022-10-08T07:04:19.456Z,57.50
2022-10-08T07:06:49.391Z,57.40
2022-10-08T07:09:18.158Z,57.40
2022-10-08T07:11:47.060Z,57.90
2022-10-08T07:14:15.805Z,57.30
2022-10-08T07:16:43.982Z,57.40
2022-10-08T07:19:12.592Z,57.40
2022-10-08T07:21:41.485Z,57.50
2022-10-08T07:24:11.509Z,57.50
2022-10-08T07:26:39.671Z,57.50
2022-10-08T07:29:13.421Z,57.40
2022-10-08T07:31:41.864Z,57.20
2022-10-08T07:34:12.928Z,57.20
2022-10-08T07:36:41.852Z,57.20
2022-10-08T07:39:15.172Z,57.40
2022-10-08T07:41:43.717Z,57.30
2022-10-08T07:44:13.066Z,57.30
2022-10-08T07:46:46.575Z,57.30
2022-10-08T07:49:15.899Z,57.40
2022-10-08T07:51:45.325Z,57.50
2022-10-08T07:54:17.614Z,57.50
2022-10-08T07:56:46.421Z,58.10
2022-10-08T07:59:16.438Z,57.50
2022-10-08T08:01:45.574Z,57.50
2022-10-08T08:04:14.674Z,57.50
2022-10-08T08:06:47.614Z,57.50
2022-10-08T08:09:18.253Z,57.50
2022-10-08T08:11:47.238Z,56.90
2022-10-08T08:14:16.556Z,56.80
2022-10-08T08:16:44.844Z,56.70
2022-10-08T08:19:13.533Z,56.40
2022-10-08T08:21:42.213Z,56.50
2022-10-08T08:24:13.770Z,56.40
2022-10-08T08:26:45.080Z,56.40
2022-10-08T08:29:16.402Z,56.50
2022-10-08T08:31:47.924Z,56.50
2022-10-08T08:34:19.288Z,56.60
2022-10-08T08:36:50.724Z,56.30
2022-10-08T08:39:24.206Z,54.60
2022-10-08T08:42:23.015Z,50.50
2022-10-08T08:44:59.254Z,51.00
2022-10-08T08:47:34.317Z,51.90
2022-10-08T08:50:08.292Z,52.70
2022-10-08T08:52:43.054Z,52.10
2022-10-08T08:55:16.676Z,53.00
2022-10-08T08:57:57.337Z,53.80
2022-10-08T09:00:36.092Z,53.70
2022-10-08T09:03:13.308Z,54.20
2022-10-08T09:05:45.766Z,54.30
2022-10-08T09:08:19.899Z,54.60
2022-10-08T09:10:54.221Z,54.30
2022-10-08T09:13:29.499Z,54.50
2022-10-08T09:15:58.924Z,54.30
2022-10-08T09:18:28.066Z,54.50
2022-10-08T09:20:56.865Z,54.70
2022-10-08T09:23:27.827Z,54.80
2022-10-08T09:26:03.709Z,54.80
2022-10-08T09:28:45.927Z,55.40
2022-10-08T09:31:30.219Z,55.00
2022-10-08T09:34:07.192Z,55.10
2022-10-08T09:36:42.949Z,55.20
2022-10-08T09:39:20.873Z,55.40
2022-10-08T09:42:14.753Z,55.20
2022-10-08T09:44:46.557Z,55.30
2022-10-08T09:47:18.622Z,55.60
2022-10-08T09:49:50.061Z,55.60
2022-10-08T09:52:26.058Z,55.70
2022-10-08T09:55:00.002Z,55.70
2022-10-08T09:57:29.176Z,55.80
2022-10-08T10:00:02.527Z,55.90
2022-10-08T10:02:36.371Z,55.90
2022-10-08T10:05:08.418Z,55.90
2022-10-08T10:07:44.659Z,56.00
2022-10-08T10:10:27.735Z,56.10
2022-10-08T10:13:02.548Z,56.10
2022-10-08T10:15:39.625Z,56.20
2022-10-08T10:18:14.437Z,56.10
2022-10-08T10:20:47.547Z,56.20
2022-10-08T10:23:21.869Z,56.30
2022-10-08T10:25:57.753Z,56.40
2022-10-08T10:28:41.223Z,56.40
2022-10-08T10:31:18.404Z,56.40
2022-10-08T10:33:53.078Z,56.60
2022-10-08T10:36:24.165Z,56.70
2022-10-08T10:38:57.505Z,56.60
2022-10-08T10:41:35.559Z,56.80
2022-10-08T10:44:11.790Z,56.80
2022-10-08T10:46:45.881Z,56.80
2022-10-08T10:49:18.753Z,57.00
2022-10-08T10:52:12.025Z,57.00
2022-10-08T10:55:13.833Z,57.00
2022-10-08T10:58:11.107Z,57.00
2022-10-08T11:00:51.761Z,57.10
2022-10-08T11:03:31.114Z,57.10
2022-10-08T11:06:16.482Z,57.00
2022-10-08T11:08:53.802Z,57.20
2022-10-08T11:11:33.172Z,57.10
2022-10-08T11:14:36.041Z,57.10
2022-10-08T11:17:18.730Z,56.90
2022-10-08T11:20:03.060Z,56.90
2022-10-08T11:22:40.482Z,57.60
2022-10-08T11:25:29.927Z,57.70
2022-10-08T11:28:15.677Z,57.80
2022-10-08T11:30:55.066Z,57.70
2022-10-08T11:33:24.895Z,57.70
2022-10-08T11:36:13.484Z,57.80
2022-10-08T11:38:50.720Z,57.90
2022-10-08T11:41:27.654Z,57.80
2022-10-08T11:44:00.052Z,57.80
2022-10-08T11:46:31.702Z,58.10
2022-10-08T11:49:03.059Z,58.20
2022-10-08T11:51:39.176Z,58.30
2022-10-08T11:54:19.251Z,58.10
2022-10-08T11:56:51.807Z,58.00
2022-10-08T11:59:34.413Z,57.90
2022-10-08T12:02:07.054Z,58.50
2022-10-08T12:04:39.309Z,58.00
2022-10-08T12:07:27.419Z,57.90
2022-10-08T12:10:31.026Z,58.30
2022-10-08T12:13:30.672Z,58.20
2022-10-08T12:16:07.039Z,58.30
2022-10-08T12:18:54.338Z,58.40
2022-10-08T12:21:51.434Z,58.30
2022-10-08T12:24:58.749Z,58.30
2022-10-08T12:27:41.347Z,57.90
2022-10-08T12:30:13.921Z,57.80
2022-10-08T12:32:57.560Z,57.70
2022-10-08T12:35:31.884Z,57.70
2022-10-08T12:38:32.239Z,57.90
2022-10-08T12:41:20.115Z,58.50
2022-10-08T12:43:54.439Z,58.40
2022-10-08T12:46:37.350Z,58.50
2022-10-08T12:49:21.681Z,58.30
2022-10-08T12:52:02.606Z,58.40
2022-10-08T12:54:32.738Z,58.40
2022-10-08T12:57:10.287Z,58.30
2022-10-08T12:59:41.963Z,58.50
2022-10-08T13:02:38.251Z,58.60
2022-10-08T13:05:23.730Z,58.50
2022-10-08T13:07:52.661Z,59.20
2022-10-08T13:10:24.450Z,58.60
2022-10-08T13:13:06.691Z,58.50
2022-10-08T13:15:37.169Z,58.40
2022-10-08T13:18:16.174Z,58.10
2022-10-08T13:20:58.780Z,57.90
2022-10-08T13:23:35.145Z,57.80
2022-10-08T13:26:05.137Z,58.10
2022-10-08T13:28:59.152Z,58.00
2022-10-08T13:31:25.629Z,57.70
2022-10-08T13:33:54.344Z,57.80
2022-10-08T13:36:24.356Z,57.80
2022-10-08T13:38:53.272Z,57.80
2022-10-08T13:41:25.310Z,57.70
2022-10-08T13:43:56.191Z,58.30
2022-10-08T13:46:25.217Z,57.80
2022-10-08T13:48:53.988Z,57.70
2022-10-08T13:51:22.791Z,57.70
2022-10-08T13:53:56.913Z,57.70
2022-10-08T13:56:27.389Z,57.90
2022-10-08T13:58:57.594Z,57.80
2022-10-08T14:01:26.325Z,57.90
2022-10-08T14:03:56.273Z,57.70
2022-10-08T14:06:26.033Z,57.80
2022-10-08T14:08:55.923Z,57.70
2022-10-08T14:11:26.660Z,57.70
2022-10-08T14:13:56.877Z,57.70
2022-10-08T14:16:25.615Z,57.80
2022-10-08T14:18:57.878Z,57.80
2022-10-08T14:21:28.570Z,57.80
2022-10-08T14:23:57.126Z,57.90
2022-10-08T14:26:26.061Z,57.90
2022-10-08T14:28:56.641Z,57.90
2022-10-08T14:31:26.482Z,57.90
2022-10-08T14:33:55.689Z,57.90
2022-10-08T14:36:32.439Z,57.90
2022-10-08T14:39:01.450Z,57.90
2022-10-08T14:41:30.140Z,57.90
2022-10-08T14:44:00.736Z,57.90
2022-10-08T14:46:29.534Z,57.90
2022-10-08T14:48:58.467Z,57.90
2022-10-08T14:51:27.858Z,57.90
2022-10-08T14:53:56.425Z,57.90
2022-10-08T14:56:25.941Z,57.90
2022-10-08T14:58:55.461Z,57.90
2022-10-08T15:01:25.907Z,57.90
2022-10-08T15:03:55.152Z,57.90
2022-10-08T15:06:23.906Z,57.90
2022-10-08T15:08:53.302Z,57.80
2022-10-08T15:11:22.701Z,57.80
2022-10-08T15:13:54.164Z,57.80
2022-10-08T15:16:25.538Z,57.80
2022-10-08T15:18:54.754Z,57.80
2022-10-08T15:21:24.041Z,57.70
2022-10-08T15:23:53.188Z,57.80
2022-10-08T15:26:21.757Z,57.80
2022-10-08T15:28:53.672Z,57.80
2022-10-08T15:31:26.045Z,57.50
2022-10-08T15:33:57.516Z,57.40
2022-10-08T15:36:29.312Z,57.30
2022-10-08T15:39:00.400Z,57.50
2022-10-08T15:41:30.764Z,57.50
2022-10-08T15:44:10.240Z,57.50
2022-10-08T15:46:41.105Z,57.50
2022-10-08T15:49:11.207Z,58.00
2022-10-08T15:51:40.497Z,57.50
2022-10-08T15:54:09.901Z,57.50
2022-10-08T15:56:38.687Z,57.50
2022-10-08T15:59:07.486Z,57.70
2022-10-08T16:01:36.934Z,57.40
2022-10-08T16:04:08.090Z,57.30
2022-10-08T16:06:37.989Z,57.40
2022-10-08T16:09:07.033Z,57.50
2022-10-08T16:11:36.534Z,57.40
2022-10-08T16:14:09.070Z,57.60
2022-10-08T16:16:39.351Z,57.60
2022-10-08T16:19:12.775Z,57.50
2022-10-08T16:21:42.202Z,57.30
2022-10-08T16:24:11.473Z,57.40
2022-10-08T16:26:41.217Z,57.40
2022-10-08T16:29:13.068Z,57.50
2022-10-08T16:31:44.483Z,57.60
2022-10-08T16:34:17.602Z,57.70
2022-10-08T16:36:48.340Z,57.70
2022-10-08T16:39:20.125Z,57.80
2022-10-08T16:41:49.634Z,57.70
2022-10-08T16:44:20.720Z,57.90
2022-10-08T16:46:52.030Z,58.20
2022-10-08T16:49:26.312Z,58.60
2022-10-08T16:51:58.140Z,58.50
2022-10-08T16:54:28.536Z,59.80
2022-10-08T16:56:57.915Z,61.50
2022-10-08T16:59:29.252Z,61.80
2022-10-08T17:02:01.122Z,61.40
2022-10-08T17:04:39.140Z,61.40
2022-10-08T17:07:09.091Z,61.40
2022-10-08T17:09:38.362Z,61.40
2022-10-08T17:12:07.528Z,61.30
2022-10-08T17:14:37.883Z,61.00
2022-10-08T17:17:07.117Z,66.60
2022-10-08T17:19:37.664Z,61.60
2022-10-08T17:22:07.411Z,61.50
2022-10-08T17:24:41.548Z,61.90
2022-10-08T17:27:13.425Z,61.70
2022-10-08T17:29:42.352Z,61.20
2022-10-08T17:32:11.726Z,60.40
2022-10-08T17:34:42.092Z,59.90
2022-10-08T17:37:11.024Z,59.70
2022-10-08T17:39:39.694Z,59.60
2022-10-08T17:42:08.505Z,59.50
2022-10-08T17:44:37.415Z,59.50
2022-10-08T17:47:07.778Z,59.40
2022-10-08T17:49:36.462Z,59.50
2022-10-08T17:52:06.460Z,59.40
2022-10-08T17:54:35.282Z,59.30
2022-10-08T17:57:03.822Z,59.40
2022-10-08T17:59:32.391Z,59.30
2022-10-08T18:02:00.980Z,59.20
2022-10-08T18:04:29.742Z,59.20
2022-10-08T18:07:03.124Z,59.20
2022-10-08T18:09:33.595Z,59.40
2022-10-08T18:12:02.156Z,60.20
2022-10-08T18:14:30.958Z,59.70
2022-10-08T18:16:59.752Z,60.20
2022-10-08T18:19:28.908Z,60.20
2022-10-08T18:26:59.512Z,59.50
2022-10-08T18:29:28.558Z,60.20
2022-10-08T18:31:57.599Z,60.10
2022-10-08T18:34:26.778Z,60.00
2022-10-08T18:36:55.437Z,60.10
2022-10-08T18:39:28.413Z,60.00
2022-10-08T18:41:59.058Z,59.60
2022-10-08T18:44:28.333Z,59.60
2022-10-08T18:46:59.674Z,59.80
2022-10-08T18:49:33.736Z,59.70
2022-10-08T18:52:02.770Z,59.40
2022-10-08T18:54:31.331Z,59.50
2022-10-08T18:57:02.526Z,59.50
2022-10-08T18:59:32.174Z,59.50
2022-10-08T19:02:00.993Z,59.50
2022-10-08T19:04:30.733Z,59.60
2022-10-08T19:07:00.383Z,59.60
2022-10-08T19:09:29.064Z,59.80
2022-10-08T19:11:57.975Z,59.70
2022-10-08T19:14:28.936Z,59.50
2022-10-08T19:16:57.979Z,60.30
2022-10-08T19:19:28.822Z,59.80
2022-10-08T19:22:00.263Z,58.80
2022-10-08T19:24:30.267Z,58.50
2022-10-08T19:27:00.557Z,57.70
2022-10-08T19:29:33.864Z,57.80
2022-10-08T19:32:02.541Z,57.60
2022-10-08T19:34:31.237Z,57.40
2022-10-08T19:37:00.986Z,57.30
2022-10-08T19:39:31.583Z,57.50
2022-10-08T19:42:01.224Z,58.10
2022-10-08T19:44:31.953Z,58.20
2022-10-08T19:47:00.518Z,59.90
2022-10-08T19:49:29.555Z,59.10
2022-10-08T19:51:58.109Z,58.80
2022-10-08T19:54:27.282Z,58.60
2022-10-08T19:56:56.800Z,58.40
2022-10-08T19:59:26.198Z,58.30
2022-10-08T20:02:00.124Z,58.00
2022-10-08T20:04:30.545Z,57.50
2022-10-08T20:07:02.688Z,57.20
2022-10-08T20:09:36.290Z,57.80
2022-10-08T20:12:06.541Z,57.90
2022-10-08T20:14:36.653Z,58.00
2022-10-08T20:17:08.210Z,58.30
2022-10-08T20:19:38.950Z,58.40
2022-10-08T20:22:11.856Z,58.50
2022-10-08T20:24:42.907Z,58.70
2022-10-08T20:27:14.232Z,58.70
2022-10-08T20:29:44.223Z,58.90
2022-10-08T20:32:16.529Z,58.70
2022-10-08T20:34:46.520Z,58.50
2022-10-08T20:37:16.544Z,58.50
2022-10-08T20:39:46.753Z,58.40
2022-10-08T20:42:17.586Z,58.20
2022-10-08T20:44:47.488Z,58.20
2022-10-08T20:47:19.019Z,58.50
2022-10-08T20:49:48.907Z,58.50
2022-10-08T20:52:19.153Z,58.40
2022-10-08T20:54:49.163Z,58.40
2022-10-08T20:57:19.156Z,58.50
2022-10-08T20:59:48.926Z,58.40
2022-10-08T21:02:19.928Z,58.50
2022-10-08T21:04:48.664Z,58.40
2022-10-08T21:07:17.232Z,58.50
2022-10-08T21:09:46.160Z,58.40
2022-10-08T21:12:14.728Z,58.50
2022-10-08T21:14:43.396Z,58.50
2022-10-08T21:17:12.315Z,58.80
2022-10-08T21:19:43.637Z,58.90
2022-10-08T21:22:12.193Z,58.50
2022-10-08T21:24:40.883Z,58.90
2022-10-08T21:27:09.560Z,59.20
2022-10-08T21:29:38.245Z,59.10
2022-10-08T21:32:06.866Z,59.10
2022-10-08T21:34:35.725Z,59.20
2022-10-08T21:37:06.833Z,59.20
2022-10-08T21:39:36.089Z,59.30
2022-10-08T21:42:04.765Z,59.40
2022-10-08T21:44:33.452Z,59.50
2022-10-08T21:47:02.006Z,59.50
2022-10-08T21:49:31.650Z,59.50
2022-10-08T21:52:00.328Z,59.60
2022-10-08T21:54:30.448Z,59.60
2022-10-08T21:56:59.143Z,59.70
2022-10-08T21:59:28.048Z,59.80
2022-10-08T22:01:57.819Z,59.80
2022-10-08T22:04:27.214Z,60.00
2022-10-08T22:06:59.858Z,60.00
2022-10-08T22:09:34.775Z,60.00
2022-10-08T22:12:03.700Z,60.10
2022-10-08T22:14:32.519Z,60.90
2022-10-08T22:17:01.427Z,60.40
2022-10-08T22:19:30.466Z,60.50
2022-10-08T22:21:59.385Z,60.70
2022-10-08T22:24:31.086Z,60.70
2022-10-08T22:27:03.130Z,60.50
2022-10-08T22:29:34.585Z,60.50
2022-10-08T22:32:04.987Z,60.20
2022-10-08T22:34:35.993Z,59.90
2022-10-08T22:37:05.997Z,59.80
2022-10-08T22:39:37.433Z,59.70
2022-10-08T22:42:07.812Z,59.70
2022-10-08T22:44:36.999Z,59.60
2022-10-08T22:47:06.278Z,59.30
2022-10-08T22:49:35.755Z,59.50
2022-10-08T22:52:05.631Z,59.40
2022-10-08T22:54:37.110Z,59.40
2022-10-08T22:57:06.871Z,59.20
2022-10-08T22:59:36.385Z,59.40
2022-10-08T23:46:00.108Z,59.20
2022-10-08T23:48:29.795Z,59.40
2022-10-08T23:50:58.716Z,59.40
2022-10-08T23:53:28.233Z,59.40
2022-10-08T23:55:57.386Z,59.40
2022-10-08T23:58:26.184Z,59.30
